Flight Track Log - Related Links

Times and Time Zones

All times are in EDT time to prevent confusion due to time zone crossing. See the AWE849 flight status page for this flight to view local times or setup timezone preferences in your user account.


Time Position Orientation Groundspeed Altitude Reporting Facility
EDT Latitude Longitude Course Direction KTS MPH feet Rate Location/Type
Fri 12:08:00 AM 39.4154 -75.5393 14° North  Level FlightAware Approximate
Fri 12:09:00 AM 39.4217 -75.5372 14° North  Level FlightAware Approximate
Fri 12:10:00 AM 39.4281 -75.5351 14° North  Level FlightAware Approximate
Fri 12:11:00 AM 39.4345 -75.5330 14° North  Level FlightAware Approximate
Fri 12:12:00 AM 39.4409 -75.5308 14° North  Level FlightAware Approximate
Fri 12:13:00 AM 39.4472 -75.5287 14° North  Level FlightAware Approximate
Fri 12:14:00 AM 39.4536 -75.5266 14° North  Level FlightAware Approximate
Fri 12:15:00 AM 39.4600 -75.5245 14° North  Level FlightAware Approximate
Fri 12:16:00 AM 39.4664 -75.5223 14° North  Level FlightAware Approximate
Fri 12:17:00 AM 39.4727 -75.5202 14° North  Level FlightAware Approximate
Fri 12:18:00 AM 39.4791 -75.5181 14° North  Level FlightAware Approximate
Fri 12:19:00 AM 39.4856 -75.5167 North  Level FlightAware Approximate
Fri 12:20:00 AM 39.4921 -75.5167 North  Level FlightAware Approximate
Fri 12:21:00 AM 39.4987 -75.5167 North  Level FlightAware Approximate
Fri 12:22:00 AM 39.5053 -75.5167 North  Level FlightAware Approximate
Fri 12:23:00 AM 39.5119 -75.5167 North  Level FlightAware Approximate
Fri 12:24:00 AM 39.5181 -75.5152 38° Northeast  Level FlightAware Approximate
Fri 12:25:00 AM 39.5233 -75.5100 38° Northeast  Level FlightAware Approximate
Fri 12:26:00 AM 39.5285 -75.5048 38° Northeast  Level FlightAware Approximate
Fri 12:27:00 AM 39.5339 -75.4999 11° North  Level FlightAware Approximate
Fri 12:28:00 AM 39.5403 -75.4983 11° North  Level FlightAware Approximate
Fri 12:29:00 AM 39.5468 -75.4966 11° North  Level FlightAware Approximate
Fri 12:30:00 AM 39.5532 -75.4950 11° North  Level FlightAware Approximate
Fri 12:31:00 AM 39.5597 -75.4934 11° North  Level FlightAware Approximate
Fri 12:32:00 AM 39.5662 -75.4918 11° North  Level FlightAware Approximate
Fri 12:33:00 AM 39.5726 -75.4902 11° North  Level FlightAware Approximate
Fri 12:34:00 AM 39.5791 -75.4886 11° North  Level FlightAware Approximate
Fri 12:35:00 AM 39.5856 -75.4869 11° North  Level FlightAware Approximate
Fri 12:36:00 AM 39.5920 -75.4853 11° North  Level FlightAware Approximate
Fri 12:37:00 AM 39.5985 -75.4837 11° North  Level FlightAware Approximate
Fri 12:38:00 AM 39.6049 -75.4817 14° North  Level FlightAware Approximate
Fri 12:39:00 AM 39.6113 -75.4796 14° North  Level FlightAware Approximate
Fri 12:40:00 AM 39.6177 -75.4774 14° North  Level FlightAware Approximate
Fri 12:41:00 AM 39.6240 -75.4753 14° North  Level FlightAware Approximate
Fri 12:42:00 AM 39.6304 -75.4732 14° North  Level FlightAware Approximate
Fri 12:43:00 AM 39.6368 -75.4711 14° North  Level FlightAware Approximate
Fri 12:44:00 AM 39.6432 -75.4689 14° North  Level FlightAware Approximate
Fri 12:45:00 AM 39.6496 -75.4668 14° North  Level FlightAware Approximate
Fri 12:46:00 AM 39.6533 -75.4600 57° Northeast  Level FlightAware Approximate
Fri 12:47:00 AM 39.6569 -75.4528 57° Northeast  Level FlightAware Approximate
Fri 12:48:00 AM 39.6605 -75.4457 57° Northeast  Level FlightAware Approximate
Fri 12:49:00 AM 39.6641 -75.4385 57° Northeast  Level FlightAware Approximate
Fri 12:50:00 AM 39.6681 -75.4319 38° Northeast  Level FlightAware Approximate
Fri 12:51:00 AM 39.6734 -75.4266 38° Northeast  Level FlightAware Approximate
Fri 12:52:00 AM 39.6786 -75.4214 38° Northeast  Level FlightAware Approximate
Fri 12:53:00 AM 39.6838 -75.4163 27° Northeast  Level FlightAware Approximate
Fri 12:54:00 AM 39.6897 -75.4124 27° Northeast  Level FlightAware Approximate
Fri 12:55:00 AM 39.6956 -75.4085 27° Northeast  Level FlightAware Approximate
Fri 12:56:00 AM 39.7014 -75.4046 27° Northeast  Level FlightAware Approximate
Fri 12:57:00 AM 39.7073 -75.4007 27° Northeast  Level FlightAware Approximate
Fri 12:58:00 AM 39.7131 -75.3968 27° Northeast  Level FlightAware Approximate
Fri 12:59:00 AM 39.7190 -75.3929 27° Northeast  Level FlightAware Approximate
Fri 01:00:00 AM 39.7249 -75.3890 27° Northeast  Level FlightAware Approximate
Fri 01:01:00 AM 39.7307 -75.3851 27° Northeast  Level FlightAware Approximate
Fri 01:02:00 AM 39.7333 -75.3786 90° East  Level FlightAware Approximate
Fri 01:03:00 AM 39.7333 -75.3700 90° East  Level FlightAware Approximate
Fri 01:04:00 AM 39.7369 -75.3643 27° Northeast  Level FlightAware Approximate
Fri 01:05:00 AM 39.7427 -75.3604 27° Northeast  Level FlightAware Approximate
Fri 01:06:00 AM 39.7486 -75.3565 27° Northeast  Level FlightAware Approximate
Fri 01:07:00 AM 39.7545 -75.3526 27° Northeast  Level FlightAware Approximate
Fri 01:08:00 AM 39.7603 -75.3487 27° Northeast  Level FlightAware Approximate
Fri 01:09:00 AM 39.7662 -75.3448 27° Northeast  Level FlightAware Approximate
Fri 01:10:00 AM 39.7720 -75.3409 27° Northeast  Level FlightAware Approximate
Fri 01:11:00 AM 39.7779 -75.3370 27° Northeast  Level FlightAware Approximate
Fri 01:12:00 AM 39.7836 -75.3328 57° Northeast  Level FlightAware Approximate
Fri 01:13:00 AM 39.7872 -75.3256 57° Northeast  Level FlightAware Approximate
Fri 01:14:00 AM 39.7908 -75.3184 57° Northeast  Level FlightAware Approximate
Fri 01:15:00 AM 39.7944 -75.3112 57° Northeast  Level FlightAware Approximate
Fri 01:16:00 AM 39.7980 -75.3041 57° Northeast  Level FlightAware Approximate
Fri 01:17:00 AM 39.8023 -75.2977 37° Northeast  Level FlightAware Approximate
Fri 01:18:00 AM 39.8075 -75.2925 38° Northeast  Level FlightAware Approximate
Fri 01:19:00 AM 39.8127 -75.2873 38° Northeast  Level FlightAware Approximate
Fri 01:20:00 AM 39.8179 -75.2821 38° Northeast  Level FlightAware Approximate
Fri 01:21:00 AM 39.8232 -75.2769 38° Northeast  Level FlightAware Approximate
Fri 01:22:00 AM 39.8284 -75.2716 38° Northeast  Level FlightAware Approximate
Fri 01:23:00 AM 39.8336 -75.2664 38° Northeast  Level FlightAware Approximate
Fri 01:24:00 AM 39.8388 -75.2612 38° Northeast  Level FlightAware Approximate
Fri 01:25:00 AM 39.8441 -75.2560 38° Northeast  Level FlightAware Approximate
Fri 01:26:00 AM 39.8493 -75.2507 38° Northeast  Level FlightAware Approximate
Fri 01:27:00 AM 39.8545 -75.2455 38° Northeast  Level FlightAware Approximate
Fri 01:28:00 AM 39.8597 -75.2403 38° Northeast  Level FlightAware Approximate
Fri 01:29:00 AM 39.8649 -75.2351 38° Northeast  Level FlightAware Approximate
Fri 01:30:00 AM 39.8667 -75.2333 37° Northeast  Level FlightAware Approximate
Fri 01:31:00 AM 39.8614 -75.2386 218° Southwest  Level FlightAware Approximate
Fri 01:32:00 AM 39.8667 -75.2333 38° Northeast  Level FlightAware Approximate
Fri 01:33:00 AM 39.8614 -75.2386 218° Southwest  Level FlightAware Approximate
Fri 01:34:00 AM 39.8667 -75.2333 38° Northeast  Level FlightAware Approximate
Fri 01:35:00 AM 39.8614 -75.2386 218° Southwest  Level FlightAware Approximate
Fri 01:36:00 AM 39.8667 -75.2333 38° Northeast  Level FlightAware Approximate
Fri 01:37:00 AM 39.8614 -75.2386 218° Southwest  Level FlightAware Approximate
Fri 01:38:00 AM 39.8667 -75.2333 38° Northeast  Level FlightAware Approximate
Fri 01:39:00 AM 39.8614 -75.2386 218° Southwest  Level FlightAware Approximate
Fri 01:40:00 AM 39.8667 -75.2333 38° Northeast  Level FlightAware Approximate
Fri 01:41:00 AM 39.8614 -75.2386 218° Southwest  Level FlightAware Approximate
Fri 01:42:00 AM 39.8667 -75.2333 38° Northeast  Level FlightAware Approximate
Fri 01:43:00 AM 39.8712 -75.2395 37° Northeast  Level Estimated
Fri 01:44:00 AM 39.8667 -75.2333 134° Southeast  Level FlightAware Approximate
Fri 01:45:00 AM 39.8614 -75.2386 218° Southwest  Level FlightAware Approximate
Fri 01:46:00 AM 39.8667 -75.2333 38° Northeast  Level FlightAware Approximate

Login

Don't have an account? Register now (free) for customized features, flight alerts, and more!